Time;durP1;ratioP1;P1;durP2;ratioP2;P2;SDS_P1;SDS_P2;PMS_P1;PMS_P2;Temp;Humidity;BMP_temperature;BMP_pressure;BME280_temperature;BME280_humidity;BME280_pressure;Samples;Min_cycle;Max_cycle;Signal;HPM_P1;HPM_P2
2024/03/26 00:00:50;;;;;;;;;;;20.00;38.90;;;;;;8338443;28;19909;-58
2024/03/26 00:04:51;;;;;;;;;;;20.00;38.20;;;;;;8322405;28;19918;-56
2024/03/26 00:08:51;;;;;;;;;;;20.00;38.00;;;;;;8322194;28;19917;-58
2024/03/26 00:12:52;;;;;;;;;;;20.00;38.30;;;;;;8322204;28;20362;-60
2024/03/26 00:16:53;;;;;;;;;;;20.10;38.10;;;;;;8353102;28;19925;-59
2024/03/26 00:20:53;;;;;;;;;;;20.10;38.10;;;;;;8354665;28;20109;-58
2024/03/26 00:24:54;;;;;;;;;;;20.00;37.90;;;;;;8354726;28;19956;-59
2024/03/26 00:28:54;;;;;;;;;;;20.00;38.30;;;;;;8354289;28;20375;-58
2024/03/26 00:32:55;;;;;;;;;;;19.90;38.70;;;;;;8354534;28;19920;-56
2024/03/26 00:36:56;;;;;;;;;;;19.70;39.20;;;;;;8354654;28;20389;-60
2024/03/26 00:40:58;;;;;;;;;;;19.80;39.10;;;;;;8353236;28;19996;-56
2024/03/26 00:44:58;;;;;;;;;;;19.80;39.00;;;;;;8355924;27;19913;-58
2024/03/26 00:48:59;;;;;;;;;;;19.90;38.40;;;;;;8354443;28;19913;-62
2024/03/26 00:52:59;;;;;;;;;;;20.00;38.80;;;;;;8359493;28;19956;-57
2024/03/26 00:57:00;;;;;;;;;;;20.00;39.40;;;;;;8359803;28;20510;-59
2024/03/26 01:01:07;;;;;;;;;;;20.10;39.20;;;;;;8359758;28;19927;-58
2024/03/26 01:05:08;;;;;;;;;;;20.10;38.80;;;;;;8359514;28;19985;-61
2024/03/26 01:09:08;;;;;;;;;;;20.10;38.70;;;;;;8359661;28;20382;-53
2024/03/26 01:13:09;;;;;;;;;;;20.10;38.80;;;;;;8359124;27;19913;-58
2024/03/26 01:17:09;;;;;;;;;;;20.10;38.90;;;;;;8359371;28;20305;-62
2024/03/26 01:21:10;;;;;;;;;;;20.00;39.20;;;;;;8359290;28;19916;-59
2024/03/26 01:25:11;;;;;;;;;;;19.90;39.80;;;;;;8327820;28;19924;-57
2024/03/26 01:29:11;;;;;;;;;;;19.80;39.40;;;;;;8325792;28;19929;-57
2024/03/26 01:33:12;;;;;;;;;;;19.90;39.10;;;;;;8325958;28;20164;-57
2024/03/26 01:37:12;;;;;;;;;;;19.90;38.70;;;;;;8326331;28;19913;-55
2024/03/26 01:41:13;;;;;;;;;;;19.90;38.40;;;;;;8325905;28;19913;-56
2024/03/26 01:45:13;;;;;;;;;;;19.90;38.20;;;;;;8357535;28;19977;-55
2024/03/26 01:49:14;;;;;;;;;;;19.90;38.10;;;;;;8358614;28;20346;-56
2024/03/26 01:53:15;;;;;;;;;;;19.90;38.00;;;;;;8358385;28;20266;-56
2024/03/26 01:57:16;;;;;;;;;;;19.90;38.00;;;;;;8340504;28;19939;-56
2024/03/26 02:01:17;;;;;;;;;;;19.90;37.90;;;;;;8357100;28;20406;-56
2024/03/26 02:05:18;;;;;;;;;;;19.80;37.80;;;;;;8358041;28;19917;-56
2024/03/26 02:09:18;;;;;;;;;;;19.70;39.00;;;;;;8358633;28;19927;-55
2024/03/26 02:13:19;;;;;;;;;;;19.60;39.60;;;;;;8357633;27;19917;-55
2024/03/26 02:17:19;;;;;;;;;;;19.60;39.10;;;;;;8357653;28;19920;-56
2024/03/26 02:21:30;;;;;;;;;;;19.60;38.70;;;;;;8359267;28;20297;-56
2024/03/26 02:36:12;;;;;;;;;;;19.80;38.00;;;;;;8347933;28;20828;-56
2024/03/26 02:50:12;;;;;;;;;;;19.80;37.70;;;;;;8359623;28;19950;-55
2024/03/26 03:19:12;;;;;;;;;;;19.70;38.10;;;;;;8436912;28;20053;-54
2024/03/26 03:23:13;;;;;;;;;;;19.60;37.90;;;;;;8326238;28;19953;-53
2024/03/26 03:27:13;;;;;;;;;;;19.70;37.80;;;;;;8323232;28;19948;-54
2024/03/26 03:31:14;;;;;;;;;;;19.70;37.80;;;;;;8323271;28;19913;-54
2024/03/26 03:35:14;;;;;;;;;;;19.70;37.70;;;;;;8324061;28;19913;-52
2024/03/26 03:39:15;;;;;;;;;;;19.70;37.60;;;;;;8390889;28;19913;-54
2024/03/26 03:43:16;;;;;;;;;;;19.60;38.10;;;;;;8324536;28;20033;-55
2024/03/26 03:47:16;;;;;;;;;;;19.40;39.20;;;;;;8323447;28;19914;-54
2024/03/26 03:51:17;;;;;;;;;;;19.40;39.20;;;;;;8322684;28;19958;-55
2024/03/26 03:55:17;;;;;;;;;;;19.50;38.70;;;;;;8323142;28;19935;-55
2024/03/26 03:59:18;;;;;;;;;;;19.50;38.40;;;;;;8390855;28;19982;-56
2024/03/26 04:03:18;;;;;;;;;;;19.60;38.20;;;;;;8322019;28;19921;-54
2024/03/26 04:07:19;;;;;;;;;;;19.60;38.00;;;;;;8390319;28;20385;-56
2024/03/26 04:11:20;;;;;;;;;;;19.60;37.80;;;;;;8322303;28;19917;-57
2024/03/26 04:15:20;;;;;;;;;;;19.70;37.70;;;;;;8336828;27;19929;-57
2024/03/26 04:19:22;;;;;;;;;;;19.70;37.70;;;;;;8354756;28;19919;-57
2024/03/26 04:23:22;;;;;;;;;;;19.70;37.60;;;;;;8354781;28;19913;-57
2024/03/26 04:27:23;;;;;;;;;;;19.70;37.50;;;;;;8360003;28;19926;-57
2024/03/26 04:41:35;;;;;;;;;;;19.40;39.00;;;;;;8362800;28;19969;-57
2024/03/26 04:46:04;;;;;;;;;;;19.50;38.40;;;;;;8329632;28;20022;-57
2024/03/26 05:15:34;;;;;;;;;;;19.70;37.60;;;;;;8359261;28;19921;-57
2024/03/26 05:20:38;;;;;;;;;;;19.60;38.10;;;;;;8396380;28;19938;-56
2024/03/26 05:29:53;;;;;;;;;;;19.40;38.90;;;;;;8396259;28;19912;-56
2024/03/26 05:33:54;;;;;;;;;;;19.50;38.30;;;;;;8470022;27;19907;-55
2024/03/26 05:37:54;;;;;;;;;;;19.60;38.00;;;;;;8397630;27;19938;-56
2024/03/26 05:41:55;;;;;;;;;;;19.70;37.70;;;;;;8358741;28;19913;-56
2024/03/26 05:45:55;;;;;;;;;;;19.70;37.50;;;;;;8358602;28;19974;-57
2024/03/26 05:49:57;;;;;;;;;;;19.70;37.30;;;;;;8358546;28;20389;-56
2024/03/26 05:53:58;;;;;;;;;;;19.80;37.30;;;;;;8358406;28;19920;-56
2024/03/26 05:57:58;;;;;;;;;;;19.80;37.20;;;;;;8358624;28;19913;-56
2024/03/26 06:01:59;;;;;;;;;;;19.80;37.10;;;;;;8358745;28;19995;-56
2024/03/26 06:05:59;;;;;;;;;;;19.80;37.60;;;;;;8358275;28;19952;-56
2024/03/26 06:10:00;;;;;;;;;;;19.60;38.40;;;;;;8357926;28;20396;-56
2024/03/26 06:14:02;;;;;;;;;;;19.60;38.60;;;;;;8357784;28;19967;-57
2024/03/26 06:18:04;;;;;;;;;;;19.70;38.10;;;;;;8358005;27;19921;-56
2024/03/26 06:22:04;;;;;;;;;;;19.70;37.80;;;;;;8357743;28;19919;-56
2024/03/26 06:26:05;;;;;;;;;;;19.80;37.60;;;;;;8357630;28;19913;-55
2024/03/26 06:30:06;;;;;;;;;;;19.80;37.40;;;;;;8357583;28;19919;-57
2024/03/26 06:34:07;;;;;;;;;;;19.80;37.30;;;;;;8357960;28;19963;-56
2024/03/26 06:38:08;;;;;;;;;;;19.80;37.20;;;;;;8357476;28;20417;-56
2024/03/26 06:42:08;;;;;;;;;;;19.90;37.10;;;;;;8357195;28;19942;-56
2024/03/26 06:46:09;;;;;;;;;;;19.90;37.00;;;;;;8357254;28;19909;-55
2024/03/26 06:50:10;;;;;;;;;;;19.80;36.90;;;;;;8356539;28;19920;-56
2024/03/26 06:54:10;;;;;;;;;;;19.80;37.30;;;;;;8357025;28;20025;-56
2024/03/26 06:58:11;;;;;;;;;;;19.70;38.50;;;;;;8356885;28;20371;-56
2024/03/26 07:02:11;;;;;;;;;;;19.70;38.60;;;;;;8356793;28;19957;-55
2024/03/26 07:06:12;;;;;;;;;;;19.70;38.00;;;;;;8356837;28;20357;-56
2024/03/26 07:10:13;;;;;;;;;;;19.70;37.70;;;;;;8356794;28;19913;-56
2024/03/26 07:14:16;;;;;;;;;;;19.80;37.50;;;;;;8356375;28;19919;-55
2024/03/26 07:18:16;;;;;;;;;;;19.80;37.40;;;;;;8356534;27;20007;-55
2024/03/26 07:22:17;;;;;;;;;;;19.80;37.20;;;;;;8356430;28;20417;-55
2024/03/26 07:26:18;;;;;;;;;;;19.80;37.10;;;;;;8356342;28;20419;-56
2024/03/26 07:30:19;;;;;;;;;;;19.80;37.00;;;;;;8355994;28;20381;-56
2024/03/26 07:34:19;;;;;;;;;;;19.80;36.90;;;;;;8356110;28;20016;-56
2024/03/26 07:38:20;;;;;;;;;;;19.90;37.40;;;;;;8356064;28;19913;-56
2024/03/26 07:42:20;;;;;;;;;;;19.90;37.50;;;;;;8355541;27;19920;-56
2024/03/26 07:46:21;;;;;;;;;;;19.70;38.30;;;;;;8355661;28;19916;-57
2024/03/26 07:50:22;;;;;;;;;;;19.70;38.30;;;;;;8355624;28;19916;-57
2024/03/26 07:54:22;;;;;;;;;;;19.80;37.90;;;;;;8355431;28;19913;-57
2024/03/26 07:58:23;;;;;;;;;;;19.80;37.60;;;;;;8356246;28;19944;-56
2024/03/26 08:02:24;;;;;;;;;;;19.80;37.40;;;;;;8354372;28;20004;-56
2024/03/26 08:06:24;;;;;;;;;;;19.80;37.30;;;;;;8355272;28;19920;-57
2024/03/26 08:10:25;;;;;;;;;;;19.90;37.20;;;;;;8355370;28;19917;-56
2024/03/26 08:14:25;;;;;;;;;;;19.90;37.00;;;;;;8355455;28;19917;-57
2024/03/26 08:18:26;;;;;;;;;;;19.90;36.90;;;;;;8354843;27;20336;-56
2024/03/26 08:22:27;;;;;;;;;;;19.90;36.90;;;;;;8354958;28;19917;-55
2024/03/26 08:26:27;;;;;;;;;;;19.90;36.80;;;;;;8354780;28;20378;-55
2024/03/26 08:30:28;;;;;;;;;;;19.80;37.60;;;;;;8354656;28;19999;-56
2024/03/26 08:34:28;;;;;;;;;;;19.70;38.30;;;;;;8354620;28;20286;-57
2024/03/26 08:38:29;;;;;;;;;;;19.70;38.30;;;;;;8354739;28;19913;-56
2024/03/26 08:42:29;;;;;;;;;;;19.80;37.90;;;;;;8354297;28;20528;-56
2024/03/26 08:46:30;;;;;;;;;;;19.70;37.60;;;;;;8354381;28;19960;-56
2024/03/26 08:50:31;;;;;;;;;;;19.80;37.40;;;;;;8354392;28;20271;-56
2024/03/26 08:54:31;;;;;;;;;;;19.80;37.20;;;;;;8353944;28;19909;-57
2024/03/26 08:58:32;;;;;;;;;;;19.80;37.20;;;;;;8354314;28;20482;-57
2024/03/26 09:02:33;;;;;;;;;;;19.90;37.10;;;;;;8354257;28;20319;-57
2024/03/26 09:06:33;;;;;;;;;;;19.90;37.00;;;;;;8336194;28;19920;-57
2024/03/26 09:10:34;;;;;;;;;;;19.90;36.90;;;;;;8355053;28;19918;-57
2024/03/26 09:14:34;;;;;;;;;;;19.80;36.80;;;;;;8359632;28;20294;-56
2024/03/26 09:18:36;;;;;;;;;;;19.70;37.70;;;;;;8359154;28;19924;-56
2024/03/26 09:22:36;;;;;;;;;;;19.70;38.50;;;;;;8359192;28;19917;-56
2024/03/26 09:26:37;;;;;;;;;;;19.70;38.30;;;;;;8359327;28;19913;-56
2024/03/26 09:30:37;;;;;;;;;;;19.70;37.90;;;;;;8359106;28;19913;-56
2024/03/26 09:34:38;;;;;;;;;;;19.80;37.60;;;;;;8359111;28;20279;-57
2024/03/26 09:38:38;;;;;;;;;;;19.80;37.30;;;;;;8358897;28;19913;-55
2024/03/26 09:42:42;;;;;;;;;;;19.90;37.30;;;;;;8358630;27;20015;-55
2024/03/26 09:46:44;;;;;;;;;;;19.80;37.10;;;;;;8359046;28;20258;-57
2024/03/26 09:50:45;;;;;;;;;;;19.90;37.10;;;;;;8358527;28;19948;-56
2024/03/26 09:54:46;;;;;;;;;;;19.90;37.00;;;;;;8358487;28;19913;-56
2024/03/26 09:58:47;;;;;;;;;;;19.90;36.90;;;;;;8358312;28;19913;-56
2024/03/26 10:02:48;;;;;;;;;;;19.80;36.80;;;;;;8358392;28;19952;-54
2024/03/26 10:06:49;;;;;;;;;;;19.70;37.80;;;;;;8358259;28;19909;-55
2024/03/26 10:10:49;;;;;;;;;;;19.70;38.60;;;;;;8358011;28;19981;-55
2024/03/26 10:14:50;;;;;;;;;;;19.70;38.30;;;;;;8357842;28;19908;-53
2024/03/26 10:18:50;;;;;;;;;;;19.70;37.90;;;;;;8357795;27;19932;-55
2024/03/26 10:22:57;;;;;;;;;;;19.80;37.60;;;;;;8356437;28;19927;-55
2024/03/26 10:26:58;;;;;;;;;;;19.80;37.40;;;;;;8357771;28;19991;-56
2024/03/26 10:30:59;;;;;;;;;;;19.80;37.30;;;;;;8357401;28;19912;-54
2024/03/26 10:35:03;;;;;;;;;;;19.80;37.10;;;;;;8357392;28;20567;-56
2024/03/26 10:39:04;;;;;;;;;;;19.80;37.10;;;;;;8357177;28;19913;-56
2024/03/26 10:43:04;;;;;;;;;;;19.80;37.00;;;;;;8339498;27;19923;-55
2024/03/26 10:47:05;;;;;;;;;;;19.80;36.90;;;;;;8357266;28;19965;-56
2024/03/26 10:51:06;;;;;;;;;;;19.80;36.80;;;;;;8357046;28;19916;-54
2024/03/26 10:55:09;;;;;;;;;;;19.70;38.10;;;;;;8356849;28;20358;-56
2024/03/26 10:59:10;;;;;;;;;;;19.60;38.70;;;;;;8356728;28;19917;-55
2024/03/26 11:03:12;;;;;;;;;;;19.60;38.20;;;;;;8356718;28;19970;-56
2024/03/26 11:07:15;;;;;;;;;;;19.70;37.90;;;;;;8356760;28;19953;-56
2024/03/26 11:11:18;;;;;;;;;;;19.70;37.60;;;;;;8338593;28;19909;-56
2024/03/26 11:15:22;;;;;;;;;;;19.80;37.40;;;;;;8356503;28;19909;-55
2024/03/26 11:19:24;;;;;;;;;;;19.80;37.20;;;;;;8356164;28;19947;-55
2024/03/26 11:23:30;;;;;;;;;;;19.80;37.20;;;;;;8355974;28;19913;-56
2024/03/26 11:27:31;;;;;;;;;;;19.80;37.00;;;;;;8356023;28;19912;-56
2024/03/26 11:31:32;;;;;;;;;;;19.90;37.00;;;;;;8356373;28;19995;-56
2024/03/26 11:35:32;;;;;;;;;;;19.80;36.80;;;;;;8355719;28;19913;-56
2024/03/26 11:39:34;;;;;;;;;;;19.80;36.80;;;;;;8355682;28;20374;-56
2024/03/26 11:43:38;;;;;;;;;;;19.70;38.00;;;;;;8355514;27;19920;-56
2024/03/26 11:47:39;;;;;;;;;;;19.50;38.70;;;;;;8355691;28;19913;-54
2024/03/26 11:51:40;;;;;;;;;;;19.60;38.10;;;;;;8338054;28;19967;-56
2024/03/26 11:55:41;;;;;;;;;;;19.70;37.80;;;;;;8355419;28;20284;-56
2024/03/26 11:59:42;;;;;;;;;;;19.70;37.60;;;;;;8355501;28;20007;-56
2024/03/26 12:03:51;;;;;;;;;;;19.80;37.30;;;;;;8355192;28;20007;-56
2024/03/26 12:07:52;;;;;;;;;;;19.80;37.20;;;;;;8355324;28;19909;-56
2024/03/26 12:11:53;;;;;;;;;;;19.80;37.10;;;;;;8355165;28;20374;-56
2024/03/26 12:15:53;;;;;;;;;;;19.80;37.00;;;;;;8355164;28;20572;-57
2024/03/26 12:19:54;;;;;;;;;;;19.80;36.90;;;;;;8355156;28;20369;-56
2024/03/26 12:23:56;;;;;;;;;;;19.80;36.90;;;;;;8355050;28;19913;-56
2024/03/26 12:27:58;;;;;;;;;;;19.80;37.00;;;;;;8354822;28;19909;-56
2024/03/26 12:31:59;;;;;;;;;;;19.60;38.30;;;;;;8354817;28;19913;-56
2024/03/26 12:36:01;;;;;;;;;;;19.50;38.70;;;;;;8354791;28;19909;-56
2024/03/26 12:40:02;;;;;;;;;;;19.60;38.20;;;;;;8354990;28;20045;-57
2024/03/26 12:44:09;;;;;;;;;;;19.60;37.80;;;;;;8354207;28;19917;-56
2024/03/26 12:48:09;;;;;;;;;;;19.70;37.60;;;;;;8358681;28;19916;-56
2024/03/26 12:52:10;;;;;;;;;;;19.70;37.30;;;;;;8360303;28;19913;-56
2024/03/26 12:56:11;;;;;;;;;;;19.80;37.20;;;;;;8360749;28;20278;-56
2024/03/26 13:00:13;;;;;;;;;;;19.80;37.10;;;;;;8359807;28;19916;-56
2024/03/26 13:04:14;;;;;;;;;;;19.80;37.00;;;;;;8359928;28;19917;-56
2024/03/26 13:08:14;;;;;;;;;;;19.80;36.90;;;;;;8359932;28;19920;-57
2024/03/26 13:12:15;;;;;;;;;;;19.80;36.90;;;;;;8399122;27;19912;-56
2024/03/26 13:16:16;;;;;;;;;;;19.80;37.30;;;;;;8533851;27;19950;-56
2024/03/26 13:20:16;;;;;;;;;;;19.60;38.30;;;;;;8533684;27;19979;-56
2024/03/26 13:24:17;;;;;;;;;;;19.50;38.60;;;;;;8533435;27;19917;-54
2024/03/26 13:28:18;;;;;;;;;;;19.60;38.10;;;;;;8533403;27;19911;-56
2024/03/26 13:32:18;;;;;;;;;;;19.70;37.80;;;;;;8533846;27;19911;-56
2024/03/26 13:36:21;;;;;;;;;;;19.70;37.50;;;;;;8533358;27;19911;-55
2024/03/26 13:40:21;;;;;;;;;;;19.70;37.40;;;;;;8532850;27;20308;-56
2024/03/26 13:44:22;;;;;;;;;;;19.80;37.30;;;;;;8402722;27;20069;-56
2024/03/26 13:48:22;;;;;;;;;;;19.80;37.20;;;;;;8358792;28;20025;-56
2024/03/26 13:52:23;;;;;;;;;;;19.80;37.10;;;;;;8358708;28;20289;-56
2024/03/26 13:56:23;;;;;;;;;;;19.80;37.00;;;;;;8358516;28;19920;-57
2024/03/26 14:00:24;;;;;;;;;;;19.80;37.00;;;;;;8358603;28;19970;-57
2024/03/26 14:04:24;;;;;;;;;;;19.80;37.40;;;;;;8358230;28;20374;-56
2024/03/26 14:08:25;;;;;;;;;;;19.60;38.40;;;;;;8358225;28;19909;-55
2024/03/26 14:12:25;;;;;;;;;;;19.50;39.10;;;;;;8358009;28;20366;-56
2024/03/26 14:16:26;;;;;;;;;;;19.60;38.10;;;;;;8358082;28;19920;-55
2024/03/26 14:20:27;;;;;;;;;;;19.70;37.80;;;;;;8357893;28;20454;-56
2024/03/26 14:24:27;;;;;;;;;;;19.70;37.50;;;;;;8357660;28;19920;-56
2024/03/26 14:28:28;;;;;;;;;;;19.70;37.40;;;;;;8357729;28;19913;-54
2024/03/26 14:32:28;;;;;;;;;;;19.70;37.20;;;;;;8357671;28;19920;-54
2024/03/26 14:36:29;;;;;;;;;;;19.80;37.20;;;;;;8357650;28;19913;-54
2024/03/26 14:40:30;;;;;;;;;;;19.80;37.10;;;;;;8357520;28;19920;-55
2024/03/26 14:44:30;;;;;;;;;;;19.80;37.10;;;;;;8339192;28;20008;-54
2024/03/26 14:48:31;;;;;;;;;;;19.80;37.00;;;;;;8339503;28;19917;-54
2024/03/26 14:52:31;;;;;;;;;;;19.70;37.60;;;;;;8357204;28;19962;-54
2024/03/26 14:56:32;;;;;;;;;;;19.60;38.60;;;;;;8356999;28;19936;-54
2024/03/26 15:00:32;;;;;;;;;;;19.50;38.60;;;;;;8356912;28;20007;-54
2024/03/26 15:04:33;;;;;;;;;;;19.60;38.20;;;;;;8356986;28;19985;-55
2024/03/26 15:08:33;;;;;;;;;;;19.60;37.80;;;;;;8355851;28;19913;-54
2024/03/26 15:12:34;;;;;;;;;;;19.70;37.60;;;;;;8356624;27;19916;-55
2024/03/26 15:16:35;;;;;;;;;;;19.70;37.40;;;;;;8356764;28;19917;-54
2024/03/26 15:20:36;;;;;;;;;;;19.80;37.30;;;;;;8356091;28;20583;-53
2024/03/26 15:24:36;;;;;;;;;;;19.80;37.20;;;;;;8356314;28;19924;-54
2024/03/26 15:32:56;;;;;;;;;;;19.80;37.10;;;;;;8355918;28;20008;-54
2024/03/26 15:36:57;;;;;;;;;;;19.80;37.00;;;;;;8356186;28;19913;-54
2024/03/26 15:40:57;;;;;;;;;;;19.70;37.90;;;;;;8355878;28;20374;-55
2024/03/26 15:44:58;;;;;;;;;;;19.50;38.80;;;;;;8339482;28;20062;-57
2024/03/26 15:48:58;;;;;;;;;;;19.50;38.70;;;;;;8355815;28;19948;-55
2024/03/26 15:52:59;;;;;;;;;;;19.50;38.10;;;;;;8355495;28;19913;-56
2024/03/26 15:56:59;;;;;;;;;;;19.60;37.80;;;;;;8355569;28;20308;-55
2024/03/26 16:01:00;;;;;;;;;;;19.70;37.60;;;;;;8355496;28;19920;-56
2024/03/26 16:05:01;;;;;;;;;;;19.70;37.50;;;;;;8337215;28;20384;-56
2024/03/26 16:09:03;;;;;;;;;;;19.70;37.30;;;;;;8355321;28;19917;-57
2024/03/26 16:13:03;;;;;;;;;;;19.70;37.20;;;;;;8357031;27;19909;-57
2024/03/26 16:17:04;;;;;;;;;;;19.70;37.10;;;;;;8354868;28;19917;-55
2024/03/26 16:21:04;;;;;;;;;;;19.70;37.10;;;;;;8356252;28;19909;-55
2024/03/26 16:25:05;;;;;;;;;;;19.80;37.10;;;;;;8360848;28;19955;-57
2024/03/26 16:29:06;;;;;;;;;;;19.70;37.80;;;;;;8360873;28;19912;-56
2024/03/26 16:33:08;;;;;;;;;;;19.50;38.70;;;;;;8342946;28;20278;-55
2024/03/26 16:37:09;;;;;;;;;;;19.50;38.60;;;;;;8360816;28;20598;-57
2024/03/26 16:41:09;;;;;;;;;;;19.50;38.10;;;;;;8360387;28;20323;-55
2024/03/26 16:45:10;;;;;;;;;;;19.60;37.80;;;;;;8360221;28;19931;-56
2024/03/26 16:49:10;;;;;;;;;;;19.70;37.70;;;;;;8360195;28;20216;-54
2024/03/26 16:53:11;;;;;;;;;;;19.70;37.50;;;;;;8360143;28;19917;-53
2024/03/26 16:57:11;;;;;;;;;;;19.70;37.40;;;;;;8360202;28;19924;-54
2024/03/26 17:01:12;;;;;;;;;;;19.70;37.20;;;;;;8359940;28;19921;-54
2024/03/26 17:05:13;;;;;;;;;;;19.70;37.20;;;;;;8358230;27;19916;-52
2024/03/26 17:09:13;;;;;;;;;;;19.70;37.10;;;;;;8356300;27;19921;-55
2024/03/26 17:13:15;;;;;;;;;;;19.60;39.20;;;;;;8353059;27;20005;-54
2024/03/26 17:17:15;;;;;;;;;;;19.60;39.30;;;;;;8337340;27;19925;-55
2024/03/26 17:21:16;;;;;;;;;;;19.50;40.30;;;;;;8321357;27;19917;-57
2024/03/26 17:25:16;;;;;;;;;;;19.50;40.30;;;;;;8348651;27;19921;-56
2024/03/26 17:29:17;;;;;;;;;;;19.60;39.20;;;;;;8327459;27;19913;-59
2024/03/26 17:33:18;;;;;;;;;;;19.60;38.60;;;;;;8339929;27;19959;-57
2024/03/26 17:37:18;;;;;;;;;;;19.70;37.90;;;;;;8346343;27;19917;-57
2024/03/26 17:41:19;;;;;;;;;;;19.70;37.60;;;;;;8344424;27;19920;-55
2024/03/26 17:45:19;;;;;;;;;;;19.70;38.20;;;;;;8349886;27;19917;-53
2024/03/26 17:49:20;;;;;;;;;;;19.70;38.00;;;;;;8358757;27;20004;-57
2024/03/26 17:53:20;;;;;;;;;;;19.70;37.90;;;;;;8375881;27;19925;-58
2024/03/26 17:57:21;;;;;;;;;;;19.90;37.70;;;;;;8374867;27;20377;-57
2024/03/26 18:01:22;;;;;;;;;;;19.90;37.40;;;;;;8353963;27;20020;-56
2024/03/26 18:05:22;;;;;;;;;;;19.90;38.50;;;;;;8359155;27;19932;-58
2024/03/26 18:09:23;;;;;;;;;;;19.90;40.20;;;;;;8375337;27;19913;-58
2024/03/26 18:13:23;;;;;;;;;;;19.90;41.20;;;;;;8379303;27;19983;-55
2024/03/26 18:17:24;;;;;;;;;;;20.10;41.20;;;;;;8287302;27;1947989;-58
2024/03/26 18:21:25;;;;;;;;;;;20.20;41.10;;;;;;8370911;27;19967;-57
2024/03/26 18:25:25;;;;;;;;;;;20.20;40.00;;;;;;8356642;28;19920;-60
2024/03/26 18:29:26;;;;;;;;;;;20.30;41.00;;;;;;8363682;27;19920;-56
2024/03/26 18:33:26;;;;;;;;;;;20.30;41.00;;;;;;8317694;27;19925;-55
2024/03/26 18:37:27;;;;;;;;;;;20.30;41.20;;;;;;8300299;27;19928;-52
2024/03/26 18:41:27;;;;;;;;;;;20.40;40.90;;;;;;8315664;27;20037;-53
2024/03/26 18:45:30;;;;;;;;;;;20.40;40.30;;;;;;8354039;27;19978;-54
2024/03/26 18:49:30;;;;;;;;;;;20.40;40.90;;;;;;8378846;27;20360;-55
2024/03/26 18:53:31;;;;;;;;;;;20.40;41.50;;;;;;8385374;27;20398;-55
2024/03/26 18:57:32;;;;;;;;;;;20.30;41.90;;;;;;8359317;27;20384;-52
2024/03/26 19:01:32;;;;;;;;;;;20.30;42.30;;;;;;8372914;27;20378;-56
2024/03/26 19:05:35;;;;;;;;;;;20.30;41.50;;;;;;8369970;27;19968;-56
2024/03/26 19:09:39;;;;;;;;;;;20.40;41.70;;;;;;8351361;27;19924;-52
2024/03/26 19:13:40;;;;;;;;;;;20.40;41.80;;;;;;8355037;27;20290;-55
2024/03/26 19:17:41;;;;;;;;;;;20.60;41.90;;;;;;8339508;27;20401;-47
2024/03/26 19:21:42;;;;;;;;;;;20.70;41.80;;;;;;8347368;27;20341;-53
2024/03/26 19:25:43;;;;;;;;;;;20.80;41.50;;;;;;8330468;27;19940;-56
2024/03/26 19:29:47;;;;;;;;;;;20.90;41.50;;;;;;8330792;27;20062;-56
2024/03/26 19:33:48;;;;;;;;;;;20.90;41.50;;;;;;8352757;27;20000;-52
2024/03/26 19:37:49;;;;;;;;;;;20.90;41.90;;;;;;8353367;27;19912;-50
2024/03/26 19:41:50;;;;;;;;;;;20.80;43.40;;;;;;8350066;27;19921;-58
2024/03/26 19:46:09;;;;;;;;;;;20.80;44.10;;;;;;8327573;27;19994;-53
2024/03/26 19:50:11;;;;;;;;;;;20.90;44.80;;;;;;8359245;27;20015;-49
2024/03/26 19:54:11;;;;;;;;;;;21.00;43.90;;;;;;8394084;27;19952;-56
2024/03/26 19:58:12;;;;;;;;;;;21.10;45.00;;;;;;8351640;27;19928;-52
2024/03/26 20:02:13;;;;;;;;;;;21.10;44.30;;;;;;8361765;27;19917;-53
2024/03/26 20:06:15;;;;;;;;;;;21.10;45.00;;;;;;8366876;27;20013;-49
2024/03/26 20:10:15;;;;;;;;;;;21.00;45.00;;;;;;8352550;27;19917;-56
2024/03/26 20:14:17;;;;;;;;;;;21.10;44.90;;;;;;8359297;27;20560;-52
2024/03/26 20:18:21;;;;;;;;;;;21.00;44.90;;;;;;8342013;27;19941;-49
2024/03/26 20:22:21;;;;;;;;;;;21.00;45.10;;;;;;8357714;27;19949;-51
2024/03/26 20:26:22;;;;;;;;;;;21.00;44.60;;;;;;8353353;27;19925;-49
2024/03/26 20:30:22;;;;;;;;;;;20.90;45.80;;;;;;8350125;27;19940;-51
2024/03/26 20:34:23;;;;;;;;;;;20.70;45.70;;;;;;8341242;27;19917;-53
2024/03/26 20:38:24;;;;;;;;;;;20.80;45.30;;;;;;8358545;27;19931;-52
2024/03/26 20:42:24;;;;;;;;;;;20.80;44.90;;;;;;8340413;28;20425;-52
2024/03/26 20:46:26;;;;;;;;;;;20.90;44.70;;;;;;8377596;27;20031;-55
2024/03/26 20:50:32;;;;;;;;;;;20.90;44.60;;;;;;8352342;28;19917;-56
2024/03/26 20:54:33;;;;;;;;;;;20.90;44.50;;;;;;8350701;28;19924;-54
2024/03/26 20:58:34;;;;;;;;;;;20.90;44.20;;;;;;8351121;27;19992;-54
2024/03/26 21:02:36;;;;;;;;;;;20.90;44.10;;;;;;8353576;28;20371;-56
2024/03/26 21:06:36;;;;;;;;;;;20.90;43.90;;;;;;8341821;27;19912;-54
2024/03/26 21:10:37;;;;;;;;;;;20.80;43.60;;;;;;8358517;28;19913;-56
2024/03/26 21:14:40;;;;;;;;;;;20.80;44.10;;;;;;8359237;27;20362;-50
2024/03/26 21:18:47;;;;;;;;;;;20.70;44.90;;;;;;8365070;27;19955;-52
2024/03/26 21:22:48;;;;;;;;;;;20.70;45.00;;;;;;8358855;28;19964;-56
2024/03/26 21:26:48;;;;;;;;;;;20.80;44.70;;;;;;8358461;28;19908;-56
2024/03/26 21:30:56;;;;;;;;;;;20.80;44.60;;;;;;8358437;28;19935;-50
2024/03/26 21:34:57;;;;;;;;;;;20.80;44.50;;;;;;8356945;27;19913;-56
2024/03/26 21:38:58;;;;;;;;;;;20.90;44.50;;;;;;8348562;27;19942;-55
2024/03/26 21:42:58;;;;;;;;;;;20.90;43.90;;;;;;8351024;27;19921;-56
2024/03/26 21:46:59;;;;;;;;;;;20.90;43.80;;;;;;8350401;27;19955;-56
2024/03/26 21:50:59;;;;;;;;;;;20.90;44.10;;;;;;8356537;27;19913;-57
2024/03/26 21:55:00;;;;;;;;;;;20.90;43.80;;;;;;8370632;27;19916;-56
2024/03/26 21:59:00;;;;;;;;;;;20.80;43.80;;;;;;8361248;27;20028;-55
2024/03/26 22:03:01;;;;;;;;;;;20.80;44.90;;;;;;8350851;28;19913;-54
2024/03/26 22:07:02;;;;;;;;;;;20.70;45.10;;;;;;8345266;27;20421;-56
2024/03/26 22:11:02;;;;;;;;;;;20.60;45.10;;;;;;8331862;27;19925;-52
2024/03/26 22:15:04;;;;;;;;;;;20.70;44.70;;;;;;8334271;27;19917;-58
2024/03/26 22:19:05;;;;;;;;;;;20.80;45.20;;;;;;8360563;27;19921;-57
2024/03/26 22:23:06;;;;;;;;;;;20.80;44.80;;;;;;8357400;28;19925;-59
2024/03/26 22:27:07;;;;;;;;;;;20.80;44.90;;;;;;8466122;27;20017;-55
2024/03/26 22:31:07;;;;;;;;;;;20.90;44.60;;;;;;8364435;27;19916;-57
2024/03/26 22:35:08;;;;;;;;;;;20.90;44.90;;;;;;8356728;28;20397;-59
2024/03/26 22:39:09;;;;;;;;;;;20.90;45.00;;;;;;8357048;28;19916;-56
2024/03/26 22:43:09;;;;;;;;;;;20.80;45.40;;;;;;8356786;28;20000;-54
2024/03/26 22:47:10;;;;;;;;;;;20.80;44.60;;;;;;8355645;27;19916;-57
2024/03/26 22:51:10;;;;;;;;;;;20.70;45.00;;;;;;8357100;28;19909;-54
2024/03/26 22:55:11;;;;;;;;;;;20.70;45.70;;;;;;8356753;28;19948;-55
2024/03/26 22:59:12;;;;;;;;;;;20.50;45.80;;;;;;8357161;28;19917;-57
2024/03/26 23:03:13;;;;;;;;;;;20.50;45.50;;;;;;8359756;27;19920;-52
2024/03/26 23:07:14;;;;;;;;;;;20.60;45.10;;;;;;8356933;28;19913;-58
2024/03/26 23:11:16;;;;;;;;;;;20.70;45.30;;;;;;8356926;28;19938;-57
2024/03/26 23:15:17;;;;;;;;;;;20.70;45.00;;;;;;8356333;27;20381;-57
2024/03/26 23:19:17;;;;;;;;;;;20.70;44.60;;;;;;8356710;28;20371;-56
2024/03/26 23:23:18;;;;;;;;;;;20.70;44.90;;;;;;8356339;28;20073;-55
2024/03/26 23:27:19;;;;;;;;;;;20.70;44.80;;;;;;8356419;28;20362;-56
2024/03/26 23:31:19;;;;;;;;;;;20.70;44.70;;;;;;8355730;28;19920;-57
2024/03/26 23:35:20;;;;;;;;;;;20.70;44.60;;;;;;8342024;28;19909;-57
2024/03/26 23:39:21;;;;;;;;;;;20.60;45.00;;;;;;8323079;28;20362;-55
2024/03/26 23:43:21;;;;;;;;;;;20.50;45.30;;;;;;8339236;27;19917;-59
2024/03/26 23:47:22;;;;;;;;;;;20.40;46.30;;;;;;8355755;28;20345;-55
2024/03/26 23:51:24;;;;;;;;;;;20.40;46.00;;;;;;8355876;28;20414;-57
2024/03/26 23:55:25;;;;;;;;;;;20.50;45.70;;;;;;8355273;28;19929;-58
2024/03/26 23:59:26;;;;;;;;;;;20.60;45.70;;;;;;8355091;28;19952;-57
